ブラジリア の空港の天気 - METARとTAF

ブラジリア国際空港 ( SBBR / BSB ) - ブラジル ブラジリア
飛行場実況気象(Metar)
観測時間12/14 04:00 BRST (12/14 06:00 UTC)
風向・風速西 1m/s
視程10km以上
天気現象
なし
気温19℃
湿度83%
気圧1019hPa
METARSBBR 140600Z 26002KT CAVOK 19/16 Q1019
過去の天気等 Google飛行場航空写真 Wunderground天気予報

過去48時間のMETAR

飛行場予報(TAF)
発表時間: 12/14 00:00 BRST (12/14 02:00 UTC)
予報対象時間: 14日4時 BRST ~ 15日4時 BRST
風向・風速東北東 3m/s
視程10km以上
なし
14日10時 BRST ~ 14日12時 BRST に徐々に
風向・風速東北東 5m/s
視程7000m
全天の4割程度の雲 雲底高度 910m
14日12時 BRST から 確率 30% で
全天の8割程度の雲 雲底高度 1070m
14日16時 BRST ~ 14日18時 BRST に徐々に
風向・風速東北東 4m/s
全天の4割程度の雲 雲底高度 1220m
14日16時 BRST から 確率 30% で
天気現象
全天の8割程度の雲 雲底高度 1220m
少しの積乱雲 雲底高度 1370m
14日22時 BRST ~ 14日24時 BRST に徐々に
風向・風速南東 3m/s
全天の4割程度の雲 雲底高度 460m
TAF SBBR 140200Z 1406/1506 06005KT CAVOK TN18/1407Z TX27/1417Z
BECMG 1412/1414 06010KT 7000 SCT030
PROB30 1414/1418 BKN035
BECMG 1418/1420 07008KT SCT040
PROB30 1418/1424 TS BKN040 FEW045CB
BECMG 1500/1502 13005KT SCT015 RMK PDE